Terminal Aerodrome Forecast
Issued by NWS

Home | Current Version | Previous Version | Text Only | Print | Product List | Glossary On
Versions: 1 2 3 4 5 6 7 8 9 10 11 12 13 14 15 16 17
000
FTAK31 PAJN 250600 AAA
TAFAYA
TAF AMD
PAYA 250646Z 2507/2606 00000KT P6SM BCFG FEW003 FEW050
      TEMPO 2508/2512 3SM BR BKN003
     FM252100 VRB03KT P6SM VCSH OVC100
      AMD LTD TO CLD VIS AND WIND 2507/2510=

USA.gov is the U.S. government's official web portal to all federal, state and local government web resources and services.